sensor_id;sensor_type;location;lat;lon;timestamp;temperature;humidity
25342;DHT22;13298;48.792;9.154;2024-02-26T00:01:23;6.90;99.90
25342;DHT22;13298;48.792;9.154;2024-02-26T00:03:49;6.90;99.90
25342;DHT22;13298;48.792;9.154;2024-02-26T00:06:15;6.90;99.90
25342;DHT22;13298;48.792;9.154;2024-02-26T00:08:41;6.90;99.90
25342;DHT22;13298;48.792;9.154;2024-02-26T00:11:07;6.90;99.90
25342;DHT22;13298;48.792;9.154;2024-02-26T00:13:32;6.90;99.90
25342;DHT22;13298;48.792;9.154;2024-02-26T00:15:58;6.90;99.90
25342;DHT22;13298;48.792;9.154;2024-02-26T00:18:24;6.90;99.90
25342;DHT22;13298;48.792;9.154;2024-02-26T00:20:49;7.00;99.90
25342;DHT22;13298;48.792;9.154;2024-02-26T00:23:15;6.90;99.90
25342;DHT22;13298;48.792;9.154;2024-02-26T00:25:41;6.90;99.90
25342;DHT22;13298;48.792;9.154;2024-02-26T00:28:09;6.90;99.90
25342;DHT22;13298;48.792;9.154;2024-02-26T00:30:35;6.80;99.90
25342;DHT22;13298;48.792;9.154;2024-02-26T00:33:01;6.80;99.90
25342;DHT22;13298;48.792;9.154;2024-02-26T00:35:27;6.80;99.90
25342;DHT22;13298;48.792;9.154;2024-02-26T00:37:52;6.80;99.90
25342;DHT22;13298;48.792;9.154;2024-02-26T00:40:19;6.80;99.90
25342;DHT22;13298;48.792;9.154;2024-02-26T00:42:44;6.70;99.90
25342;DHT22;13298;48.792;9.154;2024-02-26T00:45:12;6.80;99.90
25342;DHT22;13298;48.792;9.154;2024-02-26T00:47:38;6.80;99.90
25342;DHT22;13298;48.792;9.154;2024-02-26T00:50:07;6.70;99.90
25342;DHT22;13298;48.792;9.154;2024-02-26T00:52:34;6.70;99.90
25342;DHT22;13298;48.792;9.154;2024-02-26T00:55:00;6.70;99.90
25342;DHT22;13298;48.792;9.154;2024-02-26T00:57:25;6.70;99.90
25342;DHT22;13298;48.792;9.154;2024-02-26T00:59:51;6.80;99.90
25342;DHT22;13298;48.792;9.154;2024-02-26T01:02:17;6.80;99.90
25342;DHT22;13298;48.792;9.154;2024-02-26T01:04:42;6.80;99.90
25342;DHT22;13298;48.792;9.154;2024-02-26T01:07:09;6.80;99.90
25342;DHT22;13298;48.792;9.154;2024-02-26T01:09:34;6.80;99.90
25342;DHT22;13298;48.792;9.154;2024-02-26T01:12:00;6.80;99.90
25342;DHT22;13298;48.792;9.154;2024-02-26T01:14:27;6.80;99.90
25342;DHT22;13298;48.792;9.154;2024-02-26T01:16:53;6.80;99.90
25342;DHT22;13298;48.792;9.154;2024-02-26T01:19:19;6.80;99.90
25342;DHT22;13298;48.792;9.154;2024-02-26T01:21:45;6.80;99.90
25342;DHT22;13298;48.792;9.154;2024-02-26T01:24:10;6.80;99.90
25342;DHT22;13298;48.792;9.154;2024-02-26T01:26:36;6.80;99.90
25342;DHT22;13298;48.792;9.154;2024-02-26T01:29:02;6.80;99.90
25342;DHT22;13298;48.792;9.154;2024-02-26T01:31:27;6.80;99.90
25342;DHT22;13298;48.792;9.154;2024-02-26T01:33:53;6.80;99.90
25342;DHT22;13298;48.792;9.154;2024-02-26T01:36:19;6.80;99.90
25342;DHT22;13298;48.792;9.154;2024-02-26T01:38:45;6.80;99.90
25342;DHT22;13298;48.792;9.154;2024-02-26T01:41:11;6.80;99.90
25342;DHT22;13298;48.792;9.154;2024-02-26T01:43:36;6.70;99.90
25342;DHT22;13298;48.792;9.154;2024-02-26T01:46:03;6.80;99.90
25342;DHT22;13298;48.792;9.154;2024-02-26T01:48:29;6.70;99.90
25342;DHT22;13298;48.792;9.154;2024-02-26T01:50:55;6.70;99.90
25342;DHT22;13298;48.792;9.154;2024-02-26T01:53:21;6.70;99.90
25342;DHT22;13298;48.792;9.154;2024-02-26T01:55:47;6.70;99.90
25342;DHT22;13298;48.792;9.154;2024-02-26T01:58:13;6.70;99.90
25342;DHT22;13298;48.792;9.154;2024-02-26T02:00:39;6.80;99.90
25342;DHT22;13298;48.792;9.154;2024-02-26T02:03:06;6.70;99.90
25342;DHT22;13298;48.792;9.154;2024-02-26T02:05:33;6.70;99.90
25342;DHT22;13298;48.792;9.154;2024-02-26T02:07:59;6.80;99.90
25342;DHT22;13298;48.792;9.154;2024-02-26T02:10:26;6.70;99.90
25342;DHT22;13298;48.792;9.154;2024-02-26T02:12:52;6.70;99.90
25342;DHT22;13298;48.792;9.154;2024-02-26T02:15:18;6.70;99.90
25342;DHT22;13298;48.792;9.154;2024-02-26T02:17:43;6.70;99.90
25342;DHT22;13298;48.792;9.154;2024-02-26T02:20:15;6.70;99.90
25342;DHT22;13298;48.792;9.154;2024-02-26T02:22:45;6.70;99.90
25342;DHT22;13298;48.792;9.154;2024-02-26T02:25:11;6.70;99.90
25342;DHT22;13298;48.792;9.154;2024-02-26T02:27:36;6.70;99.90
25342;DHT22;13298;48.792;9.154;2024-02-26T02:30:03;6.70;99.90
25342;DHT22;13298;48.792;9.154;2024-02-26T02:32:30;6.70;99.90
25342;DHT22;13298;48.792;9.154;2024-02-26T02:34:56;6.70;99.90
25342;DHT22;13298;48.792;9.154;2024-02-26T02:37:22;6.80;99.90
25342;DHT22;13298;48.792;9.154;2024-02-26T02:39:48;6.80;99.90
25342;DHT22;13298;48.792;9.154;2024-02-26T02:42:14;6.80;99.90
25342;DHT22;13298;48.792;9.154;2024-02-26T02:44:40;6.80;99.90
25342;DHT22;13298;48.792;9.154;2024-02-26T02:47:06;6.80;99.90
25342;DHT22;13298;48.792;9.154;2024-02-26T02:49:31;6.80;99.90
25342;DHT22;13298;48.792;9.154;2024-02-26T02:51:57;6.90;99.90
25342;DHT22;13298;48.792;9.154;2024-02-26T02:54:23;6.80;99.90
25342;DHT22;13298;48.792;9.154;2024-02-26T02:56:49;6.80;99.90
25342;DHT22;13298;48.792;9.154;2024-02-26T02:59:15;6.80;99.90
25342;DHT22;13298;48.792;9.154;2024-02-26T03:01:40;6.80;99.90
25342;DHT22;13298;48.792;9.154;2024-02-26T03:04:06;6.80;99.90
25342;DHT22;13298;48.792;9.154;2024-02-26T03:06:32;6.80;99.90
25342;DHT22;13298;48.792;9.154;2024-02-26T03:08:57;6.80;99.90
25342;DHT22;13298;48.792;9.154;2024-02-26T03:11:23;6.90;99.90
25342;DHT22;13298;48.792;9.154;2024-02-26T03:13:49;6.90;99.90
25342;DHT22;13298;48.792;9.154;2024-02-26T03:16:14;7.00;99.90
25342;DHT22;13298;48.792;9.154;2024-02-26T03:18:42;7.00;99.90
25342;DHT22;13298;48.792;9.154;2024-02-26T03:21:08;7.10;99.90
25342;DHT22;13298;48.792;9.154;2024-02-26T03:23:33;7.10;99.90
25342;DHT22;13298;48.792;9.154;2024-02-26T03:26:06;7.10;99.90
25342;DHT22;13298;48.792;9.154;2024-02-26T03:28:31;7.10;99.90
25342;DHT22;13298;48.792;9.154;2024-02-26T03:31:01;7.10;99.90
25342;DHT22;13298;48.792;9.154;2024-02-26T03:33:27;7.10;99.90
25342;DHT22;13298;48.792;9.154;2024-02-26T03:35:53;7.10;99.90
25342;DHT22;13298;48.792;9.154;2024-02-26T03:38:19;7.10;99.90
25342;DHT22;13298;48.792;9.154;2024-02-26T03:40:44;7.20;99.90
25342;DHT22;13298;48.792;9.154;2024-02-26T03:43:10;7.20;99.90
25342;DHT22;13298;48.792;9.154;2024-02-26T03:45:36;7.20;99.90
25342;DHT22;13298;48.792;9.154;2024-02-26T03:48:01;7.20;99.90
25342;DHT22;13298;48.792;9.154;2024-02-26T03:50:27;7.10;99.90
25342;DHT22;13298;48.792;9.154;2024-02-26T03:52:53;7.10;99.90
25342;DHT22;13298;48.792;9.154;2024-02-26T03:55:19;7.10;99.90
25342;DHT22;13298;48.792;9.154;2024-02-26T03:57:52;7.10;99.90
25342;DHT22;13298;48.792;9.154;2024-02-26T04:00:19;7.10;99.90
25342;DHT22;13298;48.792;9.154;2024-02-26T04:02:47;7.10;99.90
25342;DHT22;13298;48.792;9.154;2024-02-26T04:05:13;7.10;99.90
25342;DHT22;13298;48.792;9.154;2024-02-26T04:07:40;7.10;99.90
25342;DHT22;13298;48.792;9.154;2024-02-26T04:10:09;7.10;99.90
25342;DHT22;13298;48.792;9.154;2024-02-26T04:12:37;7.00;99.90
25342;DHT22;13298;48.792;9.154;2024-02-26T04:15:04;7.00;99.90
25342;DHT22;13298;48.792;9.154;2024-02-26T04:17:30;7.00;99.90
25342;DHT22;13298;48.792;9.154;2024-02-26T04:19:56;7.00;99.90
25342;DHT22;13298;48.792;9.154;2024-02-26T04:22:21;7.00;99.90
25342;DHT22;13298;48.792;9.154;2024-02-26T04:24:47;6.90;99.90
25342;DHT22;13298;48.792;9.154;2024-02-26T04:27:13;6.90;99.90
25342;DHT22;13298;48.792;9.154;2024-02-26T04:29:38;6.80;99.90
25342;DHT22;13298;48.792;9.154;2024-02-26T04:32:04;6.80;99.90
25342;DHT22;13298;48.792;9.154;2024-02-26T04:34:30;6.80;99.90
25342;DHT22;13298;48.792;9.154;2024-02-26T04:36:56;6.70;99.90
25342;DHT22;13298;48.792;9.154;2024-02-26T04:39:22;6.70;99.90
25342;DHT22;13298;48.792;9.154;2024-02-26T04:41:48;6.60;99.90
25342;DHT22;13298;48.792;9.154;2024-02-26T04:44:13;6.60;99.90
25342;DHT22;13298;48.792;9.154;2024-02-26T04:46:39;6.60;99.90
25342;DHT22;13298;48.792;9.154;2024-02-26T04:49:05;6.60;99.90
25342;DHT22;13298;48.792;9.154;2024-02-26T04:51:31;6.50;99.90
25342;DHT22;13298;48.792;9.154;2024-02-26T04:53:56;6.50;99.90
25342;DHT22;13298;48.792;9.154;2024-02-26T04:56:22;6.50;99.90
25342;DHT22;13298;48.792;9.154;2024-02-26T04:58:48;6.60;99.90
25342;DHT22;13298;48.792;9.154;2024-02-26T05:01:15;6.50;99.90
25342;DHT22;13298;48.792;9.154;2024-02-26T05:03:42;6.50;99.90
25342;DHT22;13298;48.792;9.154;2024-02-26T05:06:08;6.50;99.90
25342;DHT22;13298;48.792;9.154;2024-02-26T05:08:34;6.50;99.90
25342;DHT22;13298;48.792;9.154;2024-02-26T05:11:01;6.50;99.90
25342;DHT22;13298;48.792;9.154;2024-02-26T05:13:29;6.50;99.90
25342;DHT22;13298;48.792;9.154;2024-02-26T05:15:54;6.50;99.90
25342;DHT22;13298;48.792;9.154;2024-02-26T05:18:21;6.50;99.90
25342;DHT22;13298;48.792;9.154;2024-02-26T05:20:47;6.50;99.90
25342;DHT22;13298;48.792;9.154;2024-02-26T05:23:13;6.60;99.90
25342;DHT22;13298;48.792;9.154;2024-02-26T05:25:39;6.60;99.90
25342;DHT22;13298;48.792;9.154;2024-02-26T05:28:04;6.60;99.90
25342;DHT22;13298;48.792;9.154;2024-02-26T05:30:30;6.60;99.90
25342;DHT22;13298;48.792;9.154;2024-02-26T05:32:56;6.60;99.90
25342;DHT22;13298;48.792;9.154;2024-02-26T05:35:22;6.70;99.90
25342;DHT22;13298;48.792;9.154;2024-02-26T05:37:47;6.70;99.90
25342;DHT22;13298;48.792;9.154;2024-02-26T05:40:13;6.70;99.90
25342;DHT22;13298;48.792;9.154;2024-02-26T05:42:39;6.70;99.90
25342;DHT22;13298;48.792;9.154;2024-02-26T05:45:06;6.70;99.90
25342;DHT22;13298;48.792;9.154;2024-02-26T05:47:35;6.70;99.90
25342;DHT22;13298;48.792;9.154;2024-02-26T05:50:01;6.70;99.90
25342;DHT22;13298;48.792;9.154;2024-02-26T05:52:27;6.70;99.90
25342;DHT22;13298;48.792;9.154;2024-02-26T05:54:54;6.70;99.90
25342;DHT22;13298;48.792;9.154;2024-02-26T05:57:20;6.60;99.90
25342;DHT22;13298;48.792;9.154;2024-02-26T05:59:46;6.60;99.90
25342;DHT22;13298;48.792;9.154;2024-02-26T06:02:11;6.60;99.90
25342;DHT22;13298;48.792;9.154;2024-02-26T06:04:37;6.50;99.90
25342;DHT22;13298;48.792;9.154;2024-02-26T06:07:04;6.60;99.90
25342;DHT22;13298;48.792;9.154;2024-02-26T06:09:30;6.50;99.90
25342;DHT22;13298;48.792;9.154;2024-02-26T06:11:56;6.50;99.90
25342;DHT22;13298;48.792;9.154;2024-02-26T06:14:21;6.40;99.90
25342;DHT22;13298;48.792;9.154;2024-02-26T06:16:48;6.40;99.90
25342;DHT22;13298;48.792;9.154;2024-02-26T06:19:14;6.20;99.90
25342;DHT22;13298;48.792;9.154;2024-02-26T06:21:40;6.20;99.90
25342;DHT22;13298;48.792;9.154;2024-02-26T06:24:06;6.10;99.90
25342;DHT22;13298;48.792;9.154;2024-02-26T06:26:31;6.00;99.90
25342;DHT22;13298;48.792;9.154;2024-02-26T06:28:58;6.00;99.90
25342;DHT22;13298;48.792;9.154;2024-02-26T06:31:24;6.00;99.90
25342;DHT22;13298;48.792;9.154;2024-02-26T06:33:53;6.00;99.90
25342;DHT22;13298;48.792;9.154;2024-02-26T06:36:19;6.00;99.90
25342;DHT22;13298;48.792;9.154;2024-02-26T06:38:45;6.00;99.90
25342;DHT22;13298;48.792;9.154;2024-02-26T06:41:10;6.00;99.90
25342;DHT22;13298;48.792;9.154;2024-02-26T06:43:37;6.00;99.90
25342;DHT22;13298;48.792;9.154;2024-02-26T06:46:02;6.00;99.90
25342;DHT22;13298;48.792;9.154;2024-02-26T06:48:28;6.10;99.90
25342;DHT22;13298;48.792;9.154;2024-02-26T06:50:54;6.10;99.90
25342;DHT22;13298;48.792;9.154;2024-02-26T06:53:19;6.10;99.90
25342;DHT22;13298;48.792;9.154;2024-02-26T06:55:45;6.20;99.90
25342;DHT22;13298;48.792;9.154;2024-02-26T06:58:11;6.20;99.90
25342;DHT22;13298;48.792;9.154;2024-02-26T07:00:37;6.30;99.90
25342;DHT22;13298;48.792;9.154;2024-02-26T07:03:02;6.30;99.90
25342;DHT22;13298;48.792;9.154;2024-02-26T07:05:29;6.40;99.90
25342;DHT22;13298;48.792;9.154;2024-02-26T07:07:54;6.50;99.90
25342;DHT22;13298;48.792;9.154;2024-02-26T07:10:20;6.60;99.90
25342;DHT22;13298;48.792;9.154;2024-02-26T07:12:46;6.70;99.90
25342;DHT22;13298;48.792;9.154;2024-02-26T07:15:12;6.80;99.90
25342;DHT22;13298;48.792;9.154;2024-02-26T07:17:38;6.90;99.90
25342;DHT22;13298;48.792;9.154;2024-02-26T07:20:08;7.00;99.90
25342;DHT22;13298;48.792;9.154;2024-02-26T07:22:34;7.10;99.90
25342;DHT22;13298;48.792;9.154;2024-02-26T07:25:00;7.10;99.90
25342;DHT22;13298;48.792;9.154;2024-02-26T07:27:25;7.20;99.90
25342;DHT22;13298;48.792;9.154;2024-02-26T07:29:51;7.20;99.90
25342;DHT22;13298;48.792;9.154;2024-02-26T07:32:17;7.30;99.90
25342;DHT22;13298;48.792;9.154;2024-02-26T07:34:43;7.30;99.90
25342;DHT22;13298;48.792;9.154;2024-02-26T07:37:10;7.30;99.90
25342;DHT22;13298;48.792;9.154;2024-02-26T07:39:36;7.30;99.90
25342;DHT22;13298;48.792;9.154;2024-02-26T07:42:02;7.30;99.90
25342;DHT22;13298;48.792;9.154;2024-02-26T07:44:28;7.30;99.90
25342;DHT22;13298;48.792;9.154;2024-02-26T07:46:54;7.40;99.90
25342;DHT22;13298;48.792;9.154;2024-02-26T07:49:20;7.40;99.90
25342;DHT22;13298;48.792;9.154;2024-02-26T07:51:46;7.50;99.90
25342;DHT22;13298;48.792;9.154;2024-02-26T07:54:11;7.60;99.90
25342;DHT22;13298;48.792;9.154;2024-02-26T07:56:37;7.70;99.90
25342;DHT22;13298;48.792;9.154;2024-02-26T07:59:03;7.80;99.90
25342;DHT22;13298;48.792;9.154;2024-02-26T08:01:28;7.90;99.90
25342;DHT22;13298;48.792;9.154;2024-02-26T08:03:54;8.00;99.90
25342;DHT22;13298;48.792;9.154;2024-02-26T08:06:21;8.00;99.90
25342;DHT22;13298;48.792;9.154;2024-02-26T08:08:47;8.10;99.90
25342;DHT22;13298;48.792;9.154;2024-02-26T08:11:14;8.20;99.90
25342;DHT22;13298;48.792;9.154;2024-02-26T08:13:41;8.30;99.90
25342;DHT22;13298;48.792;9.154;2024-02-26T08:16:07;8.40;99.90
25342;DHT22;13298;48.792;9.154;2024-02-26T08:18:33;8.50;99.90
25342;DHT22;13298;48.792;9.154;2024-02-26T08:20:58;8.50;99.90
25342;DHT22;13298;48.792;9.154;2024-02-26T08:23:24;8.60;99.90
25342;DHT22;13298;48.792;9.154;2024-02-26T08:25:51;8.70;99.90
25342;DHT22;13298;48.792;9.154;2024-02-26T08:28:17;8.70;99.90
25342;DHT22;13298;48.792;9.154;2024-02-26T08:30:43;8.80;99.90
25342;DHT22;13298;48.792;9.154;2024-02-26T08:33:09;8.80;99.90
25342;DHT22;13298;48.792;9.154;2024-02-26T08:35:36;8.80;99.90
25342;DHT22;13298;48.792;9.154;2024-02-26T08:38:02;8.80;99.90
25342;DHT22;13298;48.792;9.154;2024-02-26T08:40:28;8.80;99.90
25342;DHT22;13298;48.792;9.154;2024-02-26T08:42:54;8.80;99.90
25342;DHT22;13298;48.792;9.154;2024-02-26T08:45:21;8.90;99.90
25342;DHT22;13298;48.792;9.154;2024-02-26T08:47:47;9.00;99.90
25342;DHT22;13298;48.792;9.154;2024-02-26T08:50:14;9.00;99.90
25342;DHT22;13298;48.792;9.154;2024-02-26T08:52:40;9.10;99.90
25342;DHT22;13298;48.792;9.154;2024-02-26T08:55:06;9.20;99.90
25342;DHT22;13298;48.792;9.154;2024-02-26T08:57:34;9.30;99.90
25342;DHT22;13298;48.792;9.154;2024-02-26T09:00:02;9.50;99.90
25342;DHT22;13298;48.792;9.154;2024-02-26T09:02:28;9.60;99.90
25342;DHT22;13298;48.792;9.154;2024-02-26T09:04:54;9.60;99.90
25342;DHT22;13298;48.792;9.154;2024-02-26T09:07:21;9.70;99.90
25342;DHT22;13298;48.792;9.154;2024-02-26T09:09:47;9.80;99.90
25342;DHT22;13298;48.792;9.154;2024-02-26T09:12:12;9.80;99.90
25342;DHT22;13298;48.792;9.154;2024-02-26T09:14:38;9.80;99.90
25342;DHT22;13298;48.792;9.154;2024-02-26T09:17:04;9.90;99.90
25342;DHT22;13298;48.792;9.154;2024-02-26T09:19:31;10.00;99.90
25342;DHT22;13298;48.792;9.154;2024-02-26T09:21:57;10.10;99.90
25342;DHT22;13298;48.792;9.154;2024-02-26T09:24:24;10.20;99.90
25342;DHT22;13298;48.792;9.154;2024-02-26T09:26:50;10.30;99.90
25342;DHT22;13298;48.792;9.154;2024-02-26T09:29:16;10.20;99.90
25342;DHT22;13298;48.792;9.154;2024-02-26T09:31:42;10.30;99.90
25342;DHT22;13298;48.792;9.154;2024-02-26T09:34:09;10.20;99.90
25342;DHT22;13298;48.792;9.154;2024-02-26T09:36:34;10.20;99.90
25342;DHT22;13298;48.792;9.154;2024-02-26T09:39:00;10.20;99.90
25342;DHT22;13298;48.792;9.154;2024-02-26T09:41:28;10.20;99.90
25342;DHT22;13298;48.792;9.154;2024-02-26T09:43:57;10.20;99.90
25342;DHT22;13298;48.792;9.154;2024-02-26T09:46:25;10.20;99.90
25342;DHT22;13298;48.792;9.154;2024-02-26T09:48:51;10.40;99.90
25342;DHT22;13298;48.792;9.154;2024-02-26T09:51:17;10.40;99.90
25342;DHT22;13298;48.792;9.154;2024-02-26T09:53:44;10.50;99.90
25342;DHT22;13298;48.792;9.154;2024-02-26T09:56:12;10.70;99.90
25342;DHT22;13298;48.792;9.154;2024-02-26T09:58:39;10.90;99.90
25342;DHT22;13298;48.792;9.154;2024-02-26T10:01:13;11.10;99.90
25342;DHT22;13298;48.792;9.154;2024-02-26T10:03:41;11.30;99.90
25342;DHT22;13298;48.792;9.154;2024-02-26T10:06:11;11.50;99.90
25342;DHT22;13298;48.792;9.154;2024-02-26T10:08:37;11.70;99.90
25342;DHT22;13298;48.792;9.154;2024-02-26T10:11:13;11.90;99.90
25342;DHT22;13298;48.792;9.154;2024-02-26T10:13:40;12.10;99.90
25342;DHT22;13298;48.792;9.154;2024-02-26T10:16:07;12.10;99.90
25342;DHT22;13298;48.792;9.154;2024-02-26T10:18:49;12.20;99.90
25342;DHT22;13298;48.792;9.154;2024-02-26T10:21:16;12.30;99.90
25342;DHT22;13298;48.792;9.154;2024-02-26T10:23:45;12.30;99.90
25342;DHT22;13298;48.792;9.154;2024-02-26T10:26:13;12.40;99.90
25342;DHT22;13298;48.792;9.154;2024-02-26T10:28:41;12.40;99.90
25342;DHT22;13298;48.792;9.154;2024-02-26T10:31:08;12.30;99.90
25342;DHT22;13298;48.792;9.154;2024-02-26T10:33:35;12.30;99.90
25342;DHT22;13298;48.792;9.154;2024-02-26T10:36:05;12.40;99.90
25342;DHT22;13298;48.792;9.154;2024-02-26T10:38:32;12.40;99.90
25342;DHT22;13298;48.792;9.154;2024-02-26T10:40:58;12.50;99.90
25342;DHT22;13298;48.792;9.154;2024-02-26T10:43:25;12.60;99.90
25342;DHT22;13298;48.792;9.154;2024-02-26T10:45:51;12.70;99.90
25342;DHT22;13298;48.792;9.154;2024-02-26T10:48:17;12.70;99.90
25342;DHT22;13298;48.792;9.154;2024-02-26T10:50:43;12.70;99.90
25342;DHT22;13298;48.792;9.154;2024-02-26T10:53:30;12.60;99.90
25342;DHT22;13298;48.792;9.154;2024-02-26T10:56:04;12.50;99.90
25342;DHT22;13298;48.792;9.154;2024-02-26T10:58:31;12.50;99.90
25342;DHT22;13298;48.792;9.154;2024-02-26T11:00:57;12.50;99.90
25342;DHT22;13298;48.792;9.154;2024-02-26T11:03:24;12.60;99.90
25342;DHT22;13298;48.792;9.154;2024-02-26T11:05:50;12.70;99.90
25342;DHT22;13298;48.792;9.154;2024-02-26T11:08:19;12.70;99.90
25342;DHT22;13298;48.792;9.154;2024-02-26T11:10:47;12.60;99.90
25342;DHT22;13298;48.792;9.154;2024-02-26T11:13:16;12.40;99.90
25342;DHT22;13298;48.792;9.154;2024-02-26T11:15:45;12.30;99.90
25342;DHT22;13298;48.792;9.154;2024-02-26T11:18:14;12.30;99.90
25342;DHT22;13298;48.792;9.154;2024-02-26T11:20:41;12.20;99.90
25342;DHT22;13298;48.792;9.154;2024-02-26T11:23:08;12.20;99.90
25342;DHT22;13298;48.792;9.154;2024-02-26T11:25:35;12.00;99.90
25342;DHT22;13298;48.792;9.154;2024-02-26T11:28:05;11.90;99.90
25342;DHT22;13298;48.792;9.154;2024-02-26T11:30:34;11.70;99.90
25342;DHT22;13298;48.792;9.154;2024-02-26T11:33:06;11.60;99.90
25342;DHT22;13298;48.792;9.154;2024-02-26T11:35:34;11.50;99.90
25342;DHT22;13298;48.792;9.154;2024-02-26T11:38:01;11.60;99.90
25342;DHT22;13298;48.792;9.154;2024-02-26T11:40:27;11.60;99.90
25342;DHT22;13298;48.792;9.154;2024-02-26T11:42:54;11.80;99.90
25342;DHT22;13298;48.792;9.154;2024-02-26T11:48:22;12.10;99.90
25342;DHT22;13298;48.792;9.154;2024-02-26T11:50:55;12.30;99.90
25342;DHT22;13298;48.792;9.154;2024-02-26T11:58:41;12.60;99.90
25342;DHT22;13298;48.792;9.154;2024-02-26T12:01:43;12.50;99.90
25342;DHT22;13298;48.792;9.154;2024-02-26T12:04:18;12.40;99.90
25342;DHT22;13298;48.792;9.154;2024-02-26T12:06:50;12.40;99.90
25342;DHT22;13298;48.792;9.154;2024-02-26T12:09:41;12.30;99.90
25342;DHT22;13298;48.792;9.154;2024-02-26T12:12:08;12.20;99.90
25342;DHT22;13298;48.792;9.154;2024-02-26T12:14:58;12.30;99.90
25342;DHT22;13298;48.792;9.154;2024-02-26T12:17:25;12.40;99.90
25342;DHT22;13298;48.792;9.154;2024-02-26T12:19:52;12.60;99.90
25342;DHT22;13298;48.792;9.154;2024-02-26T12:22:19;12.80;99.90
25342;DHT22;13298;48.792;9.154;2024-02-26T12:24:45;13.00;99.90
25342;DHT22;13298;48.792;9.154;2024-02-26T12:27:11;13.10;99.90
25342;DHT22;13298;48.792;9.154;2024-02-26T12:29:37;13.40;99.90
25342;DHT22;13298;48.792;9.154;2024-02-26T12:32:04;13.50;99.90
25342;DHT22;13298;48.792;9.154;2024-02-26T12:34:31;13.70;99.90
25342;DHT22;13298;48.792;9.154;2024-02-26T12:36:57;13.80;99.90
25342;DHT22;13298;48.792;9.154;2024-02-26T12:39:23;13.90;99.90
25342;DHT22;13298;48.792;9.154;2024-02-26T12:41:49;13.80;99.90
25342;DHT22;13298;48.792;9.154;2024-02-26T12:44:24;13.90;99.90
25342;DHT22;13298;48.792;9.154;2024-02-26T12:46:50;13.90;99.90
25342;DHT22;13298;48.792;9.154;2024-02-26T12:49:16;14.00;99.90
25342;DHT22;13298;48.792;9.154;2024-02-26T12:51:44;14.10;99.90
25342;DHT22;13298;48.792;9.154;2024-02-26T12:54:10;14.20;99.90
25342;DHT22;13298;48.792;9.154;2024-02-26T12:56:37;14.20;99.90
25342;DHT22;13298;48.792;9.154;2024-02-26T12:59:03;14.20;99.90
25342;DHT22;13298;48.792;9.154;2024-02-26T13:01:30;14.00;99.90
25342;DHT22;13298;48.792;9.154;2024-02-26T13:03:56;13.90;99.90
25342;DHT22;13298;48.792;9.154;2024-02-26T13:06:22;13.80;99.90
25342;DHT22;13298;48.792;9.154;2024-02-26T13:08:49;13.70;99.90
25342;DHT22;13298;48.792;9.154;2024-02-26T13:11:15;13.80;99.90
25342;DHT22;13298;48.792;9.154;2024-02-26T13:13:41;13.90;99.90
25342;DHT22;13298;48.792;9.154;2024-02-26T13:16:10;13.90;99.90
25342;DHT22;13298;48.792;9.154;2024-02-26T13:18:36;14.00;99.90
25342;DHT22;13298;48.792;9.154;2024-02-26T13:21:14;14.00;99.90
25342;DHT22;13298;48.792;9.154;2024-02-26T13:23:42;14.10;99.90
25342;DHT22;13298;48.792;9.154;2024-02-26T13:26:11;14.10;99.90
25342;DHT22;13298;48.792;9.154;2024-02-26T13:28:37;14.00;99.90
25342;DHT22;13298;48.792;9.154;2024-02-26T13:31:03;13.90;99.90
25342;DHT22;13298;48.792;9.154;2024-02-26T13:33:31;13.90;99.90
25342;DHT22;13298;48.792;9.154;2024-02-26T13:35:58;13.90;99.90
25342;DHT22;13298;48.792;9.154;2024-02-26T13:38:25;13.90;99.90
25342;DHT22;13298;48.792;9.154;2024-02-26T13:40:51;13.90;99.90
25342;DHT22;13298;48.792;9.154;2024-02-26T13:43:18;13.80;99.90
25342;DHT22;13298;48.792;9.154;2024-02-26T13:45:44;13.80;99.90
25342;DHT22;13298;48.792;9.154;2024-02-26T13:48:11;13.70;99.90
25342;DHT22;13298;48.792;9.154;2024-02-26T13:50:40;13.80;99.90
25342;DHT22;13298;48.792;9.154;2024-02-26T13:53:08;13.80;99.90
25342;DHT22;13298;48.792;9.154;2024-02-26T13:55:35;13.70;99.90
25342;DHT22;13298;48.792;9.154;2024-02-26T13:58:01;13.70;99.90
25342;DHT22;13298;48.792;9.154;2024-02-26T14:00:28;13.70;99.90
25342;DHT22;13298;48.792;9.154;2024-02-26T14:02:59;13.70;99.90
25342;DHT22;13298;48.792;9.154;2024-02-26T14:05:25;13.70;99.90
25342;DHT22;13298;48.792;9.154;2024-02-26T14:07:50;13.80;99.90
25342;DHT22;13298;48.792;9.154;2024-02-26T14:10:17;13.80;99.90
25342;DHT22;13298;48.792;9.154;2024-02-26T14:12:43;13.90;99.90
25342;DHT22;13298;48.792;9.154;2024-02-26T14:15:10;13.90;99.90
25342;DHT22;13298;48.792;9.154;2024-02-26T14:17:36;13.80;99.90
25342;DHT22;13298;48.792;9.154;2024-02-26T14:20:02;13.70;99.90
25342;DHT22;13298;48.792;9.154;2024-02-26T14:22:28;13.70;99.90
25342;DHT22;13298;48.792;9.154;2024-02-26T14:24:56;13.60;99.90
25342;DHT22;13298;48.792;9.154;2024-02-26T14:27:22;13.60;99.90
25342;DHT22;13298;48.792;9.154;2024-02-26T14:29:48;13.50;99.90
25342;DHT22;13298;48.792;9.154;2024-02-26T14:32:14;13.40;99.90
25342;DHT22;13298;48.792;9.154;2024-02-26T14:34:40;13.40;99.90
25342;DHT22;13298;48.792;9.154;2024-02-26T14:37:06;13.40;99.90
25342;DHT22;13298;48.792;9.154;2024-02-26T14:39:32;13.40;99.90
25342;DHT22;13298;48.792;9.154;2024-02-26T14:41:59;13.40;99.90
25342;DHT22;13298;48.792;9.154;2024-02-26T14:44:25;13.40;99.90
25342;DHT22;13298;48.792;9.154;2024-02-26T14:46:51;13.40;99.90
25342;DHT22;13298;48.792;9.154;2024-02-26T14:49:17;13.40;99.90
25342;DHT22;13298;48.792;9.154;2024-02-26T14:51:43;13.20;99.90
25342;DHT22;13298;48.792;9.154;2024-02-26T14:54:12;13.10;99.90
25342;DHT22;13298;48.792;9.154;2024-02-26T14:56:38;13.00;99.90
25342;DHT22;13298;48.792;9.154;2024-02-26T14:59:04;12.90;99.90
25342;DHT22;13298;48.792;9.154;2024-02-26T15:01:30;12.90;99.90
25342;DHT22;13298;48.792;9.154;2024-02-26T15:03:56;12.80;99.90
25342;DHT22;13298;48.792;9.154;2024-02-26T15:06:22;12.80;99.90
25342;DHT22;13298;48.792;9.154;2024-02-26T15:08:48;12.80;99.90
25342;DHT22;13298;48.792;9.154;2024-02-26T15:11:14;12.80;99.90
25342;DHT22;13298;48.792;9.154;2024-02-26T15:13:40;12.80;99.90
25342;DHT22;13298;48.792;9.154;2024-02-26T15:16:06;12.70;99.90
25342;DHT22;13298;48.792;9.154;2024-02-26T15:18:32;12.70;99.90
25342;DHT22;13298;48.792;9.154;2024-02-26T15:20:58;12.60;99.90
25342;DHT22;13298;48.792;9.154;2024-02-26T15:23:23;12.60;99.90
25342;DHT22;13298;48.792;9.154;2024-02-26T15:25:49;12.60;99.90
25342;DHT22;13298;48.792;9.154;2024-02-26T15:28:15;12.70;99.90
25342;DHT22;13298;48.792;9.154;2024-02-26T15:30:41;12.70;99.90
25342;DHT22;13298;48.792;9.154;2024-02-26T15:33:07;12.70;99.90
25342;DHT22;13298;48.792;9.154;2024-02-26T15:35:33;12.70;99.90
25342;DHT22;13298;48.792;9.154;2024-02-26T15:37:59;12.60;99.90
25342;DHT22;13298;48.792;9.154;2024-02-26T15:40:25;12.60;99.90
25342;DHT22;13298;48.792;9.154;2024-02-26T15:42:50;12.60;99.90
25342;DHT22;13298;48.792;9.154;2024-02-26T15:45:16;12.60;99.90